Sunday, May 24, 2015, 5:08 PM EDT

KDOV, Dover Air Force Base

Location: Dover, DE, United States Lat: 39.133
Local Time: 5:08 PM EDT (21:08 GMT) Lon: -75.467
Time Zone: US/Eastern Elev: 29 ft

Show me the last for .
Show Decoded

2015-05-24 15:58 METAR KDOV 241958Z AUTO 22009KT 10SM CLR 27/14 A3026 =
2015-05-24 14:58 METAR KDOV 241858Z AUTO 22006G15KT 10SM FEW055 26/15 A3028 =
2015-05-24 13:58 METAR KDOV 241758Z AUTO 22009G14KT 10SM CLR 26/15 A3031 =
2015-05-24 12:58 METAR KDOV 241658Z AUTO 21010KT 10SM FEW042 25/15 A3032 =
2015-05-24 11:58 METAR KDOV 241558Z AUTO 20010KT 10SM CLR 23/15 A3034 RMK AO2 SLP277 T02340153
                 VISNO RWY19 CHINO RWY19 $ =
2015-05-24 09:58 METAR KDOV 241358Z AUTO 20012KT 10SM CLR 20/15 A3037 =
2015-05-24 08:58 METAR KDOV 241258Z AUTO 21009KT 10SM SCT070 18/15 A3039 RMK AO2 SLP294 T01830145
                 VISNO RWY19 CHINO RWY19 $ =
2015-05-24 07:58 METAR KDOV 241158Z AUTO 21010KT 10SM CLR 16/14 A3037 RMK AO2 SLP287 T01610138
                 10161 20104 52006 VISNO RWY19 CHINO RWY19 $ =
2015-05-24 06:58 METAR KDOV 241058Z AUTO 20007KT 10SM CLR 13/13 A3036 =
2015-05-24 05:58 METAR KDOV 240958Z AUTO 21005KT 10SM CLR 11/11 A3036 RMK AO2 SLP284 T01110110
                 VISNO RWY19 CHINO RWY19 $ =
2015-05-24 04:58 METAR KDOV 240858Z AUTO 20006KT 10SM CLR 12/12 A3035 =
2015-05-24 03:58 METAR KDOV 240758Z AUTO 20004KT 10SM CLR 11/11 A3035 =
2015-05-24 02:58 METAR KDOV 240658Z AUTO 19005KT 10SM CLR 11/11 A3035 =
2015-05-24 01:58 METAR KDOV 240558Z AUTO 19005KT 10SM CLR 10/10 A3035 RMK AO2 SLP281 T01040104
                 10178 20103 56004 VISNO RWY19 CHINO RWY19 $ =
2015-05-24 00:58 METAR KDOV 240458Z AUTO 19005KT 10SM CLR 11/11 A3036 =
2015-05-23 23:58 METAR KDOV 240358Z AUTO 18005KT 10SM CLR 11/10 A3036 =
2015-05-23 22:58 METAR KDOV 240258Z AUTO 19006KT 10SM CLR 12/10 A3037 =
2015-05-23 21:58 METAR KDOV 240158Z AUTO 16006KT 10SM CLR 13/10 A3036 =
2015-05-23 20:58 METAR KDOV 240058Z AUTO 15004KT 10SM CLR 14/07 A3035 =
2015-05-23 19:58 METAR KDOV 232358Z AUTO 18002KT 10SM CLR 18/04 A3035 =
2015-05-23 18:58 METAR KDOV 232258Z AUTO 21006KT 10SM CLR 20/02 A3035 =
2015-05-23 17:58 METAR KDOV 232158Z AUTO 22009KT 10SM CLR 21/02 A3036 RMK AO2 SLP284 T02070023
                 VISNO RWY19 CHINO RWY19 $ =

Support USWX by starting your Amazon purchase here.